Time;durP1;ratioP1;P1;durP2;ratioP2;P2;SDS_P1;SDS_P2;PMS_P1;PMS_P2;Temp;Humidity;BMP_temperature;BMP_pressure;BME280_temperature;BME280_humidity;BME280_pressure;Samples;Min_cycle;Max_cycle;Signal;HPM_P1;HPM_P2
2023/01/19 00:02:42;;;;;;;7.60;3.45;;;-1.10;99.90;;;;;;10215046;23;20028;-81
2023/01/19 00:06:42;;;;;;;7.93;3.00;;;-0.80;99.90;;;;;;10213999;23;20005;-82
2023/01/19 00:10:49;;;;;;;6.22;3.03;;;-0.80;99.90;;;;;;10213674;23;20096;-80
2023/01/19 00:14:50;;;;;;;5.65;3.20;;;-1.00;99.90;;;;;;10214669;23;20370;-78
2023/01/19 00:18:51;;;;;;;8.93;3.47;;;-0.90;99.90;;;;;;10214972;23;20025;-82
2023/01/19 00:22:52;;;;;;;5.30;3.33;;;-0.60;99.90;;;;;;10214455;23;20013;-80
2023/01/19 00:26:52;;;;;;;8.77;4.53;;;-0.70;99.90;;;;;;10213014;23;20015;-81
2023/01/19 00:30:53;;;;;;;7.60;4.38;;;-0.70;99.90;;;;;;10240472;23;20132;-79
2023/01/19 00:34:53;;;;;;;7.78;4.53;;;-0.90;99.90;;;;;;10239977;23;20347;-81
2023/01/19 00:38:54;;;;;;;10.18;4.22;;;-0.80;99.90;;;;;;10212965;23;20005;-82
2023/01/19 00:42:54;;;;;;;9.35;4.05;;;-0.70;99.90;;;;;;10212809;23;20060;-81
2023/01/19 00:46:55;;;;;;;9.25;4.82;;;-0.70;99.90;;;;;;10213085;23;20001;-79
2023/01/19 00:50:55;;;;;;;9.95;4.47;;;-0.80;99.90;;;;;;10211884;23;20071;-80
2023/01/19 00:54:56;;;;;;;11.63;5.25;;;-1.00;99.90;;;;;;10215997;23;20012;-81
2023/01/19 00:58:56;;;;;;;7.72;4.55;;;-1.00;99.90;;;;;;10243013;23;20012;-81
2023/01/19 01:02:57;;;;;;;11.52;5.30;;;-1.10;99.90;;;;;;10216259;23;20072;-80
2023/01/19 01:06:57;;;;;;;7.53;4.13;;;-1.10;99.90;;;;;;10215848;23;20012;-81
2023/01/19 01:10:58;;;;;;;4.72;3.50;;;-1.00;99.90;;;;;;10216832;23;20009;-81
2023/01/19 01:14:58;;;;;;;4.38;3.20;;;-0.70;99.90;;;;;;10216092;23;20017;-81
2023/01/19 01:18:59;;;;;;;7.38;3.88;;;-0.80;99.90;;;;;;10216406;23;20087;-80
2023/01/19 01:22:59;;;;;;;6.82;4.28;;;-0.80;99.90;;;;;;10215279;23;20474;-82
2023/01/19 01:27:00;;;;;;;7.18;4.22;;;-1.00;99.90;;;;;;10215524;23;20005;-81
2023/01/19 01:31:00;;;;;;;9.02;3.60;;;-1.10;99.90;;;;;;10216221;23;20025;-81
2023/01/19 01:35:01;;;;;;;7.20;3.80;;;-1.40;99.90;;;;;;10213410;23;20028;-82
2023/01/19 01:39:03;;;;;;;6.43;4.05;;;-1.60;99.90;;;;;;10217572;23;20009;-80
2023/01/19 01:43:03;;;;;;;6.38;3.95;;;-1.70;99.90;;;;;;10245364;23;20009;-82
2023/01/19 01:47:04;;;;;;;7.20;4.00;;;-1.60;99.90;;;;;;10244865;23;20505;-80
2023/01/19 01:51:22;;;;;;;8.50;3.92;;;-1.70;99.90;;;;;;10244065;23;20009;-82
2023/01/19 01:55:24;;;;;;;7.68;3.80;;;-1.60;99.90;;;;;;10244110;23;20009;-81
2023/01/19 01:59:37;;;;;;;7.25;3.45;;;-1.60;99.90;;;;;;10216528;23;20001;-81
2023/01/19 02:03:38;;;;;;;9.70;4.03;;;-2.00;99.90;;;;;;10216170;23;20402;-81
2023/01/19 02:16:23;;;;;;;6.55;3.33;;;-2.30;99.90;;;;;;10243013;23;20446;-82
2023/01/19 02:20:29;;;;;;;6.55;3.83;;;-2.60;99.90;;;;;;10242083;23;20001;-81
2023/01/19 02:24:30;;;;;;;6.30;3.80;;;-2.60;99.90;;;;;;10241161;23;20001;-80
2023/01/19 02:28:31;;;;;;;9.73;4.07;;;-2.80;99.90;;;;;;10240215;23;20009;-81
2023/01/19 02:32:31;;;;;;;7.97;3.67;;;-3.10;99.90;;;;;;10212465;23;20009;-81
2023/01/19 02:36:41;;;;;;;4.97;3.35;;;-3.30;99.90;;;;;;10212344;23;20017;-81
2023/01/19 02:40:42;;;;;;;;;;;-3.50;99.90;;;;;;10212626;23;20013;-80
2023/01/19 02:44:47;;;;;;;10.43;3.00;;;-3.60;99.90;;;;;;10211255;23;19959;-81
2023/01/19 02:48:47;;;;;;;6.13;3.28;;;-3.60;99.90;;;;;;10213095;23;20435;-81
2023/01/19 02:52:49;;;;;;;4.78;3.00;;;-3.60;99.90;;;;;;10214526;23;20017;-81
2023/01/19 02:57:16;;;;;;;4.18;2.70;;;-3.60;99.90;;;;;;10213655;23;20092;-80
2023/01/19 03:01:50;;;;;;;6.97;3.60;;;-3.70;99.90;;;;;;10154070;23;20055;-81
2023/01/19 03:06:02;;;;;;;4.40;2.63;;;-3.80;99.90;;;;;;10236885;23;20001;-81
2023/01/19 03:10:18;;;;;;;5.15;3.33;;;-3.80;99.90;;;;;;10211063;23;20001;-81
2023/01/19 03:14:24;;;;;;;4.43;2.47;;;-3.90;99.90;;;;;;10210461;23;20002;-81
2023/01/19 03:18:27;;;;;;;7.43;2.95;;;-4.00;99.90;;;;;;10237406;23;20304;-80
2023/01/19 03:22:28;;;;;;;5.80;3.17;;;-3.90;99.90;;;;;;10210955;23;20015;-80
2023/01/19 03:26:34;;;;;;;4.20;2.40;;;-4.10;99.90;;;;;;10211269;23;20349;-81
2023/01/19 03:30:41;;;;;;;3.53;2.13;;;-4.20;99.90;;;;;;10209152;23;20009;-81
2023/01/19 03:34:42;;;;;;;5.38;2.97;;;-4.40;99.90;;;;;;10210360;23;20009;-82
2023/01/19 03:38:46;;;;;;;6.93;3.05;;;-4.50;99.90;;;;;;10210753;23;20656;-80
2023/01/19 03:42:48;;;;;;;5.93;2.53;;;-4.60;99.90;;;;;;10236149;23;20005;-80
2023/01/19 03:46:50;;;;;;;10.95;3.38;;;-4.70;99.90;;;;;;10237311;23;20028;-81
2023/01/19 03:50:51;;;;;;;6.53;3.33;;;-4.80;99.90;;;;;;10210014;23;20017;-81
2023/01/19 03:54:52;;;;;;;5.47;3.20;;;-4.90;99.90;;;;;;10211064;23;20363;-81
2023/01/19 03:58:52;;;;;;;9.30;3.60;;;-4.90;99.90;;;;;;10211467;23;20033;-80
2023/01/19 04:02:54;;;;;;;7.20;3.60;;;-5.00;99.90;;;;;;10211687;23;20008;-81
2023/01/19 04:06:54;;;;;;;11.82;3.72;;;-4.90;99.90;;;;;;10211405;23;20012;-81
2023/01/19 04:10:56;;;;;;;8.55;3.50;;;-5.00;99.90;;;;;;10211171;23;20362;-81
2023/01/19 04:14:57;;;;;;;9.25;4.38;;;-5.00;99.90;;;;;;10215091;23;20164;-81
2023/01/19 04:18:57;;;;;;;4.47;2.88;;;-5.00;99.90;;;;;;10241050;23;20001;-80
2023/01/19 04:22:59;;;;;;;6.47;3.75;;;-5.00;99.90;;;;;;10214783;23;20013;-81
2023/01/19 04:27:00;;;;;;;5.15;2.80;;;-4.90;99.90;;;;;;10241785;23;20083;-81
2023/01/19 04:31:00;;;;;;;7.35;4.22;;;-5.00;99.90;;;;;;10245277;23;20029;-80
2023/01/19 04:35:01;;;;;;;6.25;4.03;;;-5.10;99.90;;;;;;10219365;23;20009;-80
2023/01/19 04:39:01;;;;;;;9.30;3.78;;;-4.90;99.90;;;;;;10219039;23;20024;-81
2023/01/19 04:43:02;;;;;;;7.78;3.58;;;-4.90;99.90;;;;;;10218156;23;20355;-80
2023/01/19 04:47:03;;;;;;;7.18;3.55;;;-5.00;99.90;;;;;;10244040;23;20009;-80
2023/01/19 04:51:03;;;;;;;6.18;3.30;;;-5.10;99.90;;;;;;10215769;23;20013;-80
2023/01/19 04:55:05;;;;;;;6.70;3.25;;;-5.00;99.90;;;;;;10219227;23;20005;-81
2023/01/19 04:59:06;;;;;;;6.45;3.90;;;-4.70;99.90;;;;;;10218564;23;20020;-80
2023/01/19 05:03:07;;;;;;;7.55;4.22;;;-4.50;99.90;;;;;;10219242;23;20032;-80
2023/01/19 05:07:07;;;;;;;7.25;3.15;;;-4.30;99.90;;;;;;10245632;23;20036;-80
2023/01/19 05:11:08;;;;;;;9.98;4.70;;;-4.10;99.90;;;;;;10220202;23;20009;-81
2023/01/19 05:15:09;;;;;;;6.72;4.60;;;-3.70;99.90;;;;;;10244647;23;20005;-80
2023/01/19 05:19:09;;;;;;;7.53;4.05;;;-3.50;99.90;;;;;;10219539;23;20005;-80
2023/01/19 05:23:10;;;;;;;8.38;4.72;;;;;;;;;;10245607;23;20060;-81
2023/01/19 05:27:11;;;;;;;8.95;3.95;;;-3.30;99.90;;;;;;10219407;23;20091;-81
2023/01/19 05:31:11;;;;;;;9.95;4.57;;;-3.60;99.90;;;;;;10219615;23;20035;-81
2023/01/19 05:35:12;;;;;;;9.63;5.72;;;-3.80;99.90;;;;;;10218893;23;20332;-80
2023/01/19 05:39:13;;;;;;;5.03;2.70;;;-3.90;99.90;;;;;;10245080;23;20436;-81
2023/01/19 05:43:14;;;;;;;4.25;2.78;;;-4.10;99.90;;;;;;10215813;23;20009;-81
2023/01/19 05:47:15;;;;;;;4.65;3.75;;;-3.80;99.90;;;;;;10217531;23;20001;-80
2023/01/19 05:51:15;;;;;;;6.40;3.90;;;-3.80;99.90;;;;;;10243319;23;20418;-80
2023/01/19 05:55:16;;;;;;;12.10;5.35;;;-3.90;99.90;;;;;;10236899;23;20032;-79
2023/01/19 05:59:22;;;;;;;9.55;4.65;;;-4.10;99.90;;;;;;10232887;23;20515;-81
2023/01/19 06:03:23;;;;;;;8.50;4.13;;;-4.20;99.90;;;;;;10235499;23;20478;-80
2023/01/19 06:07:24;;;;;;;6.78;4.10;;;-4.00;99.90;;;;;;10211409;23;20001;-80
2023/01/19 06:11:25;;;;;;;6.57;3.03;;;-3.90;99.90;;;;;;10210418;23;20458;-80
2023/01/19 06:15:25;;;;;;;12.25;3.05;;;-4.00;99.90;;;;;;10211677;23;20009;-80
2023/01/19 06:19:26;;;;;;;6.63;3.83;;;-4.20;99.90;;;;;;10210323;23;20446;-80
2023/01/19 06:23:30;;;;;;;6.38;4.13;;;-4.30;99.90;;;;;;10210811;23;20169;-80
2023/01/19 06:27:30;;;;;;;9.70;4.50;;;-4.30;99.90;;;;;;10237788;23;20040;-79
2023/01/19 06:31:31;;;;;;;9.98;4.20;;;-4.10;99.90;;;;;;10210173;23;20013;-80
2023/01/19 06:35:31;;;;;;;6.65;3.45;;;-4.00;99.90;;;;;;10211849;23;20072;-81
2023/01/19 06:39:32;;;;;;;7.55;4.55;;;-4.10;99.90;;;;;;10210278;23;20031;-80
2023/01/19 06:43:32;;;;;;;12.18;4.18;;;-4.20;99.90;;;;;;10237247;23;20005;-80
2023/01/19 06:47:33;;;;;;;5.78;4.00;;;-4.50;99.90;;;;;;10212334;23;20071;-79
2023/01/19 06:51:33;;;;;;;12.10;7.25;;;-4.40;99.90;;;;;;10209779;23;20451;-80
2023/01/19 06:55:35;;;;;;;9.25;3.67;;;-4.20;99.90;;;;;;10210685;23;20015;-80
2023/01/19 06:59:35;;;;;;;11.10;5.35;;;-4.10;99.90;;;;;;10208661;23;20035;-80
2023/01/19 07:03:37;;;;;;;9.45;4.85;;;-4.10;99.90;;;;;;10236792;23;20005;-79
2023/01/19 07:07:38;;;;;;;11.57;4.78;;;-3.90;99.90;;;;;;10236605;23;20005;-80
2023/01/19 07:11:39;;;;;;;4.78;2.70;;;-3.80;99.90;;;;;;10237120;23;20390;-80
2023/01/19 07:15:39;;;;;;;7.35;4.25;;;-3.80;99.90;;;;;;10236802;23;20005;-79
2023/01/19 07:19:40;;;;;;;9.90;3.88;;;-3.70;99.90;;;;;;10210419;23;20016;-80
2023/01/19 07:23:42;;;;;;;6.93;3.47;;;-3.80;99.90;;;;;;10211374;23;20024;-80
2023/01/19 07:27:43;;;;;;;11.05;4.10;;;-3.80;99.90;;;;;;10213492;23;20348;-80
2023/01/19 07:31:44;;;;;;;8.65;5.50;;;-4.00;99.90;;;;;;10212097;23;20470;-80
2023/01/19 07:35:47;;;;;;;11.35;4.38;;;-3.70;99.90;;;;;;10211012;23;20005;-80
2023/01/19 07:39:47;;;;;;;8.60;3.83;;;-3.50;99.90;;;;;;10211503;23;20084;-80
2023/01/19 07:43:50;;;;;;;12.75;4.50;;;-3.50;99.90;;;;;;10238091;23;20005;-79
2023/01/19 07:47:50;;;;;;;6.13;3.72;;;-3.40;99.90;;;;;;10210713;23;20043;-80
2023/01/19 07:51:51;;;;;;;9.50;3.65;;;-3.30;99.90;;;;;;10209008;23;20017;-79
2023/01/19 07:55:55;;;;;;;13.57;5.57;;;-3.10;99.90;;;;;;10236358;23;20001;-80
2023/01/19 07:59:56;;;;;;;13.10;5.35;;;-3.00;99.90;;;;;;10207768;23;20033;-79
2023/01/19 08:03:57;;;;;;;8.05;4.88;;;-3.00;99.90;;;;;;10234696;23;20373;-80
2023/01/19 08:07:59;;;;;;;13.02;4.97;;;-2.90;99.90;;;;;;10209649;23;20009;-79
2023/01/19 08:11:59;;;;;;;4.28;3.05;;;-2.90;99.90;;;;;;10235344;23;20084;-80
2023/01/19 08:16:00;;;;;;;9.10;4.72;;;-3.10;99.90;;;;;;10208195;23;20016;-80
2023/01/19 08:20:00;;;;;;;14.68;4.57;;;-2.90;99.90;;;;;;10208357;23;20032;-79
2023/01/19 08:24:01;;;;;;;6.05;4.05;;;-2.90;99.90;;;;;;10207295;23;20020;-80
2023/01/19 08:28:03;;;;;;;5.95;3.28;;;-2.60;99.90;;;;;;10234800;23;20343;-79
2023/01/19 08:32:05;;;;;;;9.88;4.45;;;-2.50;99.90;;;;;;10208236;23;20005;-80
2023/01/19 08:36:06;;;;;;;4.65;2.13;;;-2.40;99.90;;;;;;10235093;23;20329;-80
2023/01/19 08:40:07;;;;;;;3.28;1.52;;;-2.30;99.90;;;;;;10235248;23;20105;-79
2023/01/19 08:44:08;;;;;;;9.70;4.82;;;-2.10;99.90;;;;;;10206921;23;20001;-79
2023/01/19 08:48:09;;;;;;;11.85;4.07;;;-2.10;99.90;;;;;;10209404;23;20001;-80
2023/01/19 08:52:09;;;;;;;8.93;3.40;;;-2.10;99.90;;;;;;10209353;23;20020;-79
2023/01/19 08:56:11;;;;;;;7.72;3.13;;;-2.10;99.90;;;;;;10234436;23;20047;-79
2023/01/19 09:00:12;;;;;;;8.65;4.13;;;-1.90;99.90;;;;;;10207489;23;20075;-80
2023/01/19 09:04:13;;;;;;;7.07;3.53;;;-1.90;99.90;;;;;;10234209;23;20068;-79
2023/01/19 09:08:14;;;;;;;7.68;4.20;;;-1.80;99.90;;;;;;10207618;23;20380;-79
2023/01/19 09:12:15;;;;;;;7.43;4.35;;;-1.80;99.90;;;;;;10233727;23;20009;-80
2023/01/19 09:16:16;;;;;;;9.05;4.30;;;-1.80;99.90;;;;;;10209381;23;20001;-79
2023/01/19 09:20:16;;;;;;;11.65;5.28;;;-1.80;99.90;;;;;;10213454;23;20029;-80
2023/01/19 09:24:17;;;;;;;8.55;4.57;;;-1.60;99.90;;;;;;10240043;23;20009;-81
2023/01/19 09:28:17;;;;;;;9.68;4.55;;;-1.50;99.90;;;;;;10213324;23;20005;-79
2023/01/19 09:32:19;;;;;;;9.32;4.90;;;-1.20;99.90;;;;;;10239282;23;20009;-80
2023/01/19 09:36:20;;;;;;;3.10;2.50;;;-1.00;99.90;;;;;;10210015;23;20088;-79
2023/01/19 09:40:20;;;;;;;7.53;4.50;;;-0.80;99.90;;;;;;10210103;23;20008;-79
2023/01/19 09:44:30;;;;;;;10.32;4.88;;;-0.60;99.90;;;;;;10236656;23;20391;-81
2023/01/19 09:48:53;;;;;;;9.10;4.93;;;-0.50;99.90;;;;;;10211505;23;19997;-81
2023/01/19 09:53:12;;;;;;;10.00;5.22;;;-0.30;99.90;;;;;;10210998;23;20250;-80
2023/01/19 09:57:13;;;;;;;10.80;5.80;;;0.00;99.90;;;;;;10237937;23;20009;-81
2023/01/19 10:01:36;;;;;;;17.10;7.15;;;0.20;99.90;;;;;;10237252;23;20276;-80
2023/01/19 10:05:43;;;;;;;9.30;4.57;;;0.60;99.90;;;;;;10209194;23;20005;-79
2023/01/19 10:09:56;;;;;;;8.60;4.18;;;1.00;99.90;;;;;;10209726;23;20406;-80
2023/01/19 10:13:57;;;;;;;7.00;4.20;;;0.90;99.90;;;;;;10260685;23;20013;-78
2023/01/19 10:18:42;;;;;;;12.80;5.50;;;0.80;99.90;;;;;;10258143;23;20005;-77
2023/01/19 10:22:47;;;;;;;6.43;4.43;;;0.60;99.90;;;;;;10244429;23;20269;-78
2023/01/19 10:26:51;;;;;;;12.43;4.80;;;0.70;99.90;;;;;;10207286;23;20052;-78
2023/01/19 10:30:53;;;;;;;9.90;4.97;;;0.80;99.90;;;;;;10207643;23;20008;-78
2023/01/19 10:34:55;;;;;;;9.95;4.55;;;0.80;99.90;;;;;;10208184;23;20013;-78
2023/01/19 10:38:57;;;;;;;9.40;4.53;;;0.90;99.90;;;;;;10207741;23;20448;-78
2023/01/19 10:42:57;;;;;;;7.32;3.95;;;1.10;99.90;;;;;;10207995;23;20406;-78
2023/01/19 10:46:59;;;;;;;10.38;4.85;;;1.40;99.90;;;;;;10234703;23;20190;-77
2023/01/19 10:51:03;;;;;;;14.13;5.10;;;2.10;99.90;;;;;;10207090;23;20009;-78
2023/01/19 10:55:06;;;;;;;11.95;4.68;;;2.60;99.90;;;;;;10206011;23;20009;-78
2023/01/19 10:59:44;;;;;;;4.93;3.05;;;2.90;99.90;;;;;;10231459;23;20001;-78
2023/01/19 11:03:44;;;;;;;5.75;2.85;;;2.80;99.90;;;;;;10204981;23;20080;-79
2023/01/19 11:07:45;;;;;;;5.43;2.83;;;2.40;99.90;;;;;;10206119;23;20004;-78
2023/01/19 11:11:49;;;;;;;7.05;3.92;;;2.60;99.90;;;;;;10205658;23;20009;-79
2023/01/19 11:15:55;;;;;;;5.82;2.45;;;2.80;99.90;;;;;;10206158;23;20017;-78
2023/01/19 11:20:01;;;;;;;4.88;3.05;;;2.80;99.90;;;;;;10206178;23;20009;-78
2023/01/19 11:24:07;;;;;;;6.57;3.28;;;2.60;99.90;;;;;;10231872;23;20029;-78
2023/01/19 11:28:35;;;;;;;6.10;2.95;;;2.90;99.90;;;;;;10204896;23;20001;-78
2023/01/19 11:32:36;;;;;;;6.53;3.78;;;3.30;99.90;;;;;;10206646;23;20072;-79
2023/01/19 11:36:36;;;;;;;5.63;2.85;;;4.10;99.90;;;;;;10232251;23;20338;-79
2023/01/19 11:40:38;;;;;;;9.27;4.40;;;4.00;99.90;;;;;;10206248;23;20036;-79
2023/01/19 11:44:45;;;;;;;6.18;3.55;;;4.20;99.90;;;;;;10206478;23;20104;-78
2023/01/19 11:49:00;;;;;;;5.57;3.22;;;3.90;99.90;;;;;;10207592;23;20112;-79
2023/01/19 11:53:09;;;;;;;5.57;3.63;;;3.90;99.90;;;;;;10206462;23;20387;-79
2023/01/19 11:57:14;;;;;;;10.30;4.00;;;3.90;99.90;;;;;;10233351;23;20001;-78
2023/01/19 12:01:23;;;;;;;8.55;3.42;;;3.20;99.90;;;;;;10205399;23;20019;-78
2023/01/19 12:05:28;;;;;;;5.45;2.80;;;3.00;99.90;;;;;;10233508;23;20025;-78
2023/01/19 12:09:34;;;;;;;6.78;3.75;;;4.10;99.90;;;;;;10206745;23;20092;-79
2023/01/19 12:13:36;;;;;;;6.50;3.33;;;3.90;99.90;;;;;;10232261;23;20009;-78
2023/01/19 12:17:50;;;;;;;5.57;3.03;;;3.30;99.90;;;;;;10207789;23;20009;-78
2023/01/19 12:21:51;;;;;;;4.78;2.25;;;3.20;99.90;;;;;;10207556;23;20005;-78
2023/01/19 12:26:05;;;;;;;6.10;2.95;;;3.60;99.90;;;;;;10207725;23;20005;-79
2023/01/19 12:30:27;;;;;;;6.68;2.13;;;3.10;99.90;;;;;;10206877;23;20440;-79
2023/01/19 12:34:37;;;;;;;3.38;2.17;;;2.50;99.90;;;;;;10207074;23;20009;-79
2023/01/19 12:38:38;;;;;;;;;;;2.00;99.90;;;;;;10208035;23;20009;-79
2023/01/19 12:42:44;;;;;;;6.18;2.70;;;1.70;99.90;;;;;;10207963;23;19995;-79
2023/01/19 12:46:48;;;;;;;7.10;2.67;;;1.70;99.90;;;;;;10206481;23;20436;-78
2023/01/19 12:50:48;;;;;;;7.90;2.85;;;1.60;99.90;;;;;;10210665;23;20080;-79
2023/01/19 12:54:57;;;;;;;6.32;2.95;;;1.70;99.90;;;;;;10210104;23;20008;-78
2023/01/19 12:58:58;;;;;;;9.80;3.22;;;2.10;99.90;;;;;;10210208;23;20005;-78
2023/01/19 13:03:20;;;;;;;5.95;3.30;;;2.20;99.90;;;;;;10237209;23;20001;-78
2023/01/19 13:07:21;;;;;;;4.75;2.50;;;2.40;99.90;;;;;;10174524;23;20035;-79
2023/01/19 13:11:22;;;;;;;5.93;2.90;;;2.70;99.90;;;;;;10235943;23;20001;-79
2023/01/19 13:15:28;;;;;;;5.30;2.80;;;2.60;99.90;;;;;;10208713;23;20021;-79
2023/01/19 13:19:41;;;;;;;11.02;2.70;;;2.80;99.90;;;;;;10209290;23;20013;-79
2023/01/19 13:23:50;;;;;;;7.22;2.78;;;2.70;99.90;;;;;;10208473;23;20016;-79
2023/01/19 13:27:51;;;;;;;6.25;2.63;;;2.40;99.90;;;;;;10209267;23;19997;-79
2023/01/19 13:31:55;;;;;;;4.97;2.20;;;2.30;99.90;;;;;;10210105;23;20005;-79
2023/01/19 13:35:57;;;;;;;3.25;2.08;;;2.20;99.90;;;;;;10234832;23;20005;-78
2023/01/19 13:39:58;;;;;;;3.00;2.17;;;2.30;99.90;;;;;;10209253;23;20435;-79
2023/01/19 13:44:07;;;;;;;3.08;2.00;;;2.30;99.90;;;;;;10235368;23;20005;-78
2023/01/19 13:48:17;;;;;;;4.47;2.43;;;2.30;99.90;;;;;;10209573;23;20100;-79
2023/01/19 13:52:23;;;;;;;;;;;2.20;99.90;;;;;;10209107;23;20013;-79
2023/01/19 13:56:28;;;;;;;6.28;3.15;;;2.00;99.90;;;;;;10206256;23;19901;-78
2023/01/19 14:00:29;;;;;;;2.75;1.92;;;1.90;99.90;;;;;;10205626;23;20444;-79
2023/01/19 14:04:32;;;;;;;4.57;2.45;;;1.80;99.90;;;;;;10205481;23;20008;-79
2023/01/19 14:08:33;;;;;;;4.18;2.58;;;1.60;99.90;;;;;;10232139;23;20005;-79
2023/01/19 14:12:34;;;;;;;5.75;2.45;;;1.50;99.90;;;;;;10206137;23;20371;-78
2023/01/19 14:16:34;;;;;;;5.22;2.88;;;1.50;99.90;;;;;;10206814;23;20017;-79
2023/01/19 14:20:36;;;;;;;5.88;2.30;;;1.50;99.90;;;;;;10205908;23;20076;-78
2023/01/19 14:24:37;;;;;;;3.80;2.30;;;1.70;99.90;;;;;;10206159;23;20060;-78
2023/01/19 14:28:43;;;;;;;5.13;1.90;;;1.70;99.90;;;;;;10206145;23;20020;-80
2023/01/19 14:32:46;;;;;;;5.30;2.83;;;1.70;99.90;;;;;;10232814;23;20009;-78
2023/01/19 14:36:50;;;;;;;4.13;2.65;;;1.80;99.90;;;;;;10232309;23;20006;-79
2023/01/19 14:41:06;;;;;;;5.95;2.47;;;1.60;99.90;;;;;;10129782;23;20325;-79
2023/01/19 14:45:22;;;;;;;6.68;3.03;;;2.80;99.90;;;;;;10205745;23;20266;-79
2023/01/19 14:49:49;;;;;;;5.50;2.97;;;1.30;99.90;;;;;;10232363;23;20338;-79
2023/01/19 14:53:53;;;;;;;4.63;2.53;;;1.30;99.90;;;;;;10198669;23;20068;-79
2023/01/19 14:57:54;;;;;;;4.30;2.42;;;1.20;99.90;;;;;;10232418;23;20017;-79
2023/01/19 15:01:55;;;;;;;4.80;2.50;;;1.00;99.90;;;;;;10231592;23;20001;-79
2023/01/19 15:05:56;;;;;;;6.68;3.50;;;1.00;99.90;;;;;;10205543;23;20211;-79
2023/01/19 15:09:58;;;;;;;8.65;3.35;;;0.90;99.90;;;;;;10205453;23;20012;-79
2023/01/19 15:13:59;;;;;;;7.57;2.95;;;0.80;99.90;;;;;;10205456;23;20075;-79
2023/01/19 15:18:02;;;;;;;7.32;3.53;;;0.80;99.90;;;;;;10232375;23;20316;-78
2023/01/19 15:22:10;;;;;;;6.82;2.70;;;0.80;99.90;;;;;;10205286;23;20067;-79
2023/01/19 15:26:15;;;;;;;11.25;4.38;;;0.70;99.90;;;;;;10205076;23;20001;-79
2023/01/19 15:30:20;;;;;;;10.02;5.15;;;0.60;99.90;;;;;;10205247;23;20029;-79
2023/01/19 15:34:21;;;;;;;6.13;3.10;;;0.30;99.90;;;;;;10204476;23;20008;-79
2023/01/19 15:38:22;;;;;;;14.75;7.05;;;0.20;99.90;;;;;;10205548;23;20181;-79
2023/01/19 15:42:23;;;;;;;12.77;6.78;;;0.00;99.90;;;;;;10204722;23;20013;-79
2023/01/19 15:46:24;;;;;;;7.55;3.33;;;-0.30;99.90;;;;;;10231945;23;20007;-79
2023/01/19 15:50:25;;;;;;;8.57;3.97;;;-0.30;99.90;;;;;;10204764;23;20005;-79
2023/01/19 15:54:26;;;;;;;7.40;3.70;;;-0.50;99.90;;;;;;10231895;23;20001;-80
2023/01/19 15:58:27;;;;;;;5.57;3.80;;;-0.60;99.90;;;;;;10204586;23;20005;-79
2023/01/19 16:02:27;;;;;;;10.20;5.13;;;-0.60;99.90;;;;;;10230885;23;20008;-79
2023/01/19 16:06:29;;;;;;;9.98;4.38;;;-0.60;99.90;;;;;;10204582;23;20352;-79
2023/01/19 16:10:29;;;;;;;14.27;5.30;;;-0.70;99.90;;;;;;10204591;23;20016;-79
2023/01/19 16:14:30;;;;;;;4.45;2.58;;;-0.90;99.90;;;;;;10204429;23;20104;-79
2023/01/19 16:18:31;;;;;;;6.80;3.33;;;-0.90;99.90;;;;;;10230965;23;20004;-79
2023/01/19 16:22:32;;;;;;;6.63;3.10;;;-0.90;99.90;;;;;;10204982;23;20088;-79
2023/01/19 16:26:33;;;;;;;5.43;2.75;;;-0.90;99.90;;;;;;10233761;23;20005;-79
2023/01/19 16:30:34;;;;;;;7.32;3.17;;;-0.60;99.90;;;;;;10208238;23;20085;-79
2023/01/19 16:34:34;;;;;;;10.20;3.20;;;-0.70;99.90;;;;;;10208023;23;20005;-79
2023/01/19 16:38:35;;;;;;;7.63;3.45;;;-0.50;99.90;;;;;;10207887;23;20470;-80
2023/01/19 16:42:36;;;;;;;84.82;27.48;;;-0.50;99.90;;;;;;10207863;23;20013;-79
2023/01/19 16:46:40;;;;;;;32.03;13.15;;;-0.70;99.90;;;;;;10208155;23;20032;-79
2023/01/19 16:50:41;;;;;;;27.90;12.23;;;-0.70;99.90;;;;;;10234058;23;19997;-79
2023/01/19 16:54:42;;;;;;;22.55;9.32;;;-0.80;99.90;;;;;;10207326;23;20420;-79
2023/01/19 16:58:43;;;;;;;13.50;6.78;;;-0.90;99.90;;;;;;10207183;23;20059;-80
2023/01/19 17:02:43;;;;;;;33.03;14.30;;;-1.00;99.90;;;;;;10206847;23;20005;-79
2023/01/19 17:06:45;;;;;;;17.33;7.05;;;-1.00;99.90;;;;;;10207580;23;20438;-80
2023/01/19 17:10:46;;;;;;;4.95;2.70;;;-1.00;99.90;;;;;;10233523;23;20008;-80
2023/01/19 17:14:47;;;;;;;18.95;7.97;;;-1.00;99.90;;;;;;10237449;23;20451;-86
2023/01/19 17:18:47;;;;;;;18.27;6.82;;;-0.80;99.90;;;;;;10211978;23;20013;-86
2023/01/19 17:22:48;;;;;;;14.32;6.00;;;-0.80;99.90;;;;;;10211194;23;20024;-86
2023/01/19 17:26:48;;;;;;;12.23;5.28;;;-0.90;99.90;;;;;;10210905;23;20001;-80
2023/01/19 17:30:50;;;;;;;9.13;4.18;;;-1.00;99.90;;;;;;10209886;23;20005;-80
2023/01/19 17:34:51;;;;;;;10.68;5.22;;;-1.10;99.90;;;;;;10236538;23;19997;-80
2023/01/19 17:38:53;;;;;;;11.57;5.13;;;-1.00;99.90;;;;;;10209439;23;20008;-79
2023/01/19 17:42:53;;;;;;;12.48;5.53;;;-0.80;99.90;;;;;;10209853;23;20009;-79
2023/01/19 17:46:55;;;;;;;19.75;8.40;;;-0.90;99.90;;;;;;10208883;23;20017;-79
2023/01/19 17:51:11;;;;;;;38.70;14.43;;;-0.90;99.90;;;;;;10210344;23;20013;-79
2023/01/19 17:55:12;;;;;;;20.20;9.60;;;-1.10;99.90;;;;;;10208784;23;20027;-79
2023/01/19 17:59:12;;;;;;;16.48;5.63;;;-1.30;99.90;;;;;;10210043;23;20704;-81
2023/01/19 18:03:13;;;;;;;8.13;3.58;;;-1.50;99.90;;;;;;10210049;23;20017;-81
2023/01/19 18:07:13;;;;;;;12.63;4.63;;;-1.70;99.90;;;;;;10235986;23;20004;-80
2023/01/19 18:11:16;;;;;;;11.77;5.03;;;-1.80;99.90;;;;;;10207799;23;20015;-80
2023/01/19 18:15:17;;;;;;;14.80;6.70;;;-1.90;99.90;;;;;;10207879;23;20668;-81
2023/01/19 18:19:20;;;;;;;16.25;6.85;;;-2.00;99.90;;;;;;10209186;23;20096;-80
2023/01/19 18:23:21;;;;;;;11.05;5.28;;;-2.10;99.90;;;;;;10208656;23;20032;-81
2023/01/19 18:27:22;;;;;;;10.00;5.50;;;-2.10;99.90;;;;;;10234591;23;20077;-80
2023/01/19 18:31:23;;;;;;;14.60;6.78;;;-2.20;99.90;;;;;;10208160;23;20017;-81
2023/01/19 18:35:24;;;;;;;13.55;6.25;;;-2.00;99.90;;;;;;10235131;23;20021;-81
2023/01/19 18:39:25;;;;;;;11.63;4.93;;;-1.60;99.90;;;;;;10207253;23;20005;-81
2023/01/19 18:43:26;;;;;;;8.38;4.65;;;-1.30;99.90;;;;;;10207144;23;20120;-80
2023/01/19 18:47:27;;;;;;;12.20;6.05;;;-1.10;99.90;;;;;;10232691;23;20001;-80
2023/01/19 18:51:28;;;;;;;9.30;5.43;;;-1.20;99.90;;;;;;10208531;23;20071;-81
2023/01/19 18:55:28;;;;;;;10.60;4.82;;;-1.30;99.90;;;;;;10208279;23;20043;-80
2023/01/19 18:59:29;;;;;;;9.55;4.55;;;-1.40;99.90;;;;;;10234375;23;20436;-81
2023/01/19 19:03:30;;;;;;;10.48;3.53;;;-1.40;99.90;;;;;;10208297;23;20355;-81
2023/01/19 19:07:30;;;;;;;13.10;5.15;;;-1.60;99.90;;;;;;10208824;23;20005;-80
2023/01/19 19:11:31;;;;;;;15.88;7.10;;;-1.70;99.90;;;;;;10208951;23;20072;-80
2023/01/19 19:15:32;;;;;;;9.07;3.65;;;-2.10;99.90;;;;;;10232483;23;20009;-81
2023/01/19 19:19:33;;;;;;;11.68;5.82;;;-2.00;99.90;;;;;;10208686;23;20020;-81
2023/01/19 19:23:34;;;;;;;10.70;4.80;;;-2.10;99.90;;;;;;10234383;23;20510;-81
2023/01/19 19:27:35;;;;;;;8.60;4.40;;;-2.20;99.90;;;;;;10209117;23;20005;-79
2023/01/19 19:31:36;;;;;;;6.45;3.50;;;-2.30;99.90;;;;;;10209566;23;20020;-81
2023/01/19 19:35:39;;;;;;;7.05;3.42;;;-2.40;99.90;;;;;;10208297;23;20009;-80
2023/01/19 19:39:40;;;;;;;7.82;3.20;;;-2.70;99.90;;;;;;10207229;23;20017;-80
2023/01/19 19:43:40;;;;;;;8.95;3.45;;;-2.50;99.90;;;;;;10207487;23;20300;-80
2023/01/19 19:47:44;;;;;;;13.93;4.63;;;-2.50;99.90;;;;;;10206629;23;20519;-80
2023/01/19 19:51:44;;;;;;;11.38;4.57;;;-2.50;99.90;;;;;;10207444;23;20033;-80
2023/01/19 19:55:55;;;;;;;9.20;3.08;;;-2.50;99.90;;;;;;10207666;23;20092;-80
2023/01/19 19:59:56;;;;;;;6.45;3.40;;;-2.40;99.90;;;;;;10207791;23;20037;-80
2023/01/19 20:03:58;;;;;;;7.88;3.53;;;-2.50;99.90;;;;;;10207870;23;20443;-80
2023/01/19 20:07:59;;;;;;;11.07;4.10;;;-2.30;99.90;;;;;;10207909;23;20084;-80
2023/01/19 20:11:59;;;;;;;8.10;3.45;;;-2.20;99.90;;;;;;10206437;23;20334;-81
2023/01/19 20:16:05;;;;;;;15.18;3.67;;;-1.70;99.90;;;;;;10234028;23;20044;-80
2023/01/19 20:20:06;;;;;;;6.70;4.07;;;-1.50;99.90;;;;;;10207329;23;20040;-79
2023/01/19 20:24:12;;;;;;;5.97;3.78;;;-1.50;99.90;;;;;;10204439;23;20009;-77
2023/01/19 20:28:13;;;;;;;10.60;4.28;;;-1.80;99.90;;;;;;10205281;23;20088;-79
2023/01/19 20:32:13;;;;;;;9.23;3.90;;;-1.80;99.90;;;;;;10206457;23;20016;-79
2023/01/19 20:36:14;;;;;;;9.30;4.82;;;-2.00;99.90;;;;;;10202756;23;20016;-79
2023/01/19 20:40:15;;;;;;;10.88;4.60;;;-1.60;99.90;;;;;;10203969;23;20012;-79
2023/01/19 20:44:18;;;;;;;20.05;6.70;;;-1.30;99.90;;;;;;10231237;23;20384;-79
2023/01/19 20:48:19;;;;;;;19.02;7.25;;;-1.40;99.90;;;;;;10206348;23;20009;-79
2023/01/19 20:52:20;;;;;;;9.77;4.35;;;-1.60;99.90;;;;;;10230131;23;20012;-79
2023/01/19 20:56:20;;;;;;;16.95;5.07;;;-1.70;99.90;;;;;;10206056;23;20406;-78
2023/01/19 21:00:21;;;;;;;13.52;5.90;;;-1.70;99.90;;;;;;10205214;23;20064;-79